createdAt,value
2023-01-25T00:00:00.791Z,79.46
2023-01-25T00:01:04.677Z,79.46
2023-01-25T00:02:01.194Z,79.46
2023-01-25T00:03:00.635Z,79.46
2023-01-25T00:04:00.750Z,79.65
2023-01-25T00:05:00.623Z,79.65
2023-01-25T00:06:00.906Z,79.65
2023-01-25T00:07:00.632Z,79.65
2023-01-25T00:08:00.610Z,79.65
2023-01-25T00:09:00.635Z,79.83
2023-01-25T00:10:00.669Z,79.83
2023-01-25T00:11:00.606Z,79.83
2023-01-25T00:12:00.633Z,79.83
2023-01-25T00:13:00.602Z,79.83
2023-01-25T00:14:00.599Z,80.05
2023-01-25T00:15:00.609Z,80.05
2023-01-25T00:16:01.093Z,80.05
2023-01-25T00:17:00.613Z,80.05
2023-01-25T00:18:00.629Z,80.05
2023-01-25T00:19:00.619Z,80.25
2023-01-25T00:20:00.605Z,80.25
2023-01-25T00:21:10.550Z,80.25
2023-01-25T00:22:00.625Z,80.25
2023-01-25T00:23:00.618Z,80.25
2023-01-25T00:24:01.629Z,80.43
2023-01-25T00:25:00.620Z,80.43
2023-01-25T00:26:00.613Z,80.43
2023-01-25T00:27:01.223Z,80.43
2023-01-25T00:28:00.617Z,80.43
2023-01-25T00:29:00.714Z,80.58
2023-01-25T00:30:00.611Z,80.58
2023-01-25T00:31:01.002Z,80.58
2023-01-25T00:32:00.750Z,80.58
2023-01-25T00:33:10.528Z,80.58
2023-01-25T00:34:10.539Z,80.51
2023-01-25T00:35:00.632Z,80.51
2023-01-25T00:36:00.617Z,80.51
2023-01-25T00:37:01.706Z,80.51
2023-01-25T00:38:02.041Z,80.51
2023-01-25T00:39:00.605Z,80.51
2023-01-25T00:40:00.612Z,80.69
2023-01-25T00:41:00.630Z,80.69
2023-01-25T00:42:00.614Z,80.69
2023-01-25T00:43:00.668Z,80.69
2023-01-25T00:44:00.631Z,80.91
2023-01-25T00:45:00.672Z,80.91
2023-01-25T00:46:00.964Z,80.91
2023-01-25T00:47:00.603Z,80.91
2023-01-25T00:48:00.611Z,80.91
2023-01-25T00:49:00.614Z,81.20
2023-01-25T00:50:00.612Z,81.20
2023-01-25T00:51:00.976Z,81.20
2023-01-25T00:52:00.614Z,81.20
2023-01-25T00:53:00.596Z,81.20
2023-01-25T00:54:00.729Z,81.26
2023-01-25T00:55:00.676Z,81.26
2023-01-25T00:56:00.624Z,81.26
2023-01-25T00:57:00.717Z,81.26
2023-01-25T00:58:00.607Z,81.26
2023-01-25T00:59:00.599Z,81.44
2023-01-25T01:00:00.610Z,81.44
2023-01-25T01:01:00.660Z,81.44
2023-01-25T01:02:00.923Z,81.44
2023-01-25T01:03:00.610Z,81.44
2023-01-25T01:04:00.625Z,81.69
2023-01-25T01:05:00.721Z,81.69
2023-01-25T01:06:00.590Z,81.69
2023-01-25T01:07:00.637Z,81.69
2023-01-25T01:08:00.751Z,81.69
2023-01-25T01:09:00.852Z,81.79
2023-01-25T01:10:00.643Z,81.79
2023-01-25T01:11:01.013Z,81.79
2023-01-25T01:12:00.621Z,81.79
2023-01-25T01:13:00.627Z,81.79
2023-01-25T01:14:00.696Z,81.85
2023-01-25T01:15:00.674Z,81.85
2023-01-25T01:16:02.181Z,81.85
2023-01-25T01:17:00.666Z,81.85
2023-01-25T01:18:00.676Z,81.85
2023-01-25T01:19:00.970Z,82.09
2023-01-25T01:20:00.631Z,82.09
2023-01-25T01:21:00.609Z,82.09
2023-01-25T01:22:00.604Z,82.09
2023-01-25T01:23:00.622Z,82.09
2023-01-25T01:24:00.663Z,82.11
2023-01-25T01:25:00.754Z,82.11
2023-01-25T01:26:02.716Z,82.11
2023-01-25T01:27:00.617Z,82.11
2023-01-25T01:28:00.598Z,82.11
2023-01-25T01:29:00.801Z,82.26
2023-01-25T01:30:00.619Z,82.26
2023-01-25T01:31:01.455Z,82.26
2023-01-25T01:32:00.736Z,82.26
2023-01-25T01:33:00.600Z,82.26
2023-01-25T01:34:00.753Z,82.29
2023-01-25T01:35:00.604Z,82.29
2023-01-25T01:36:08.758Z,82.29
2023-01-25T01:37:00.624Z,82.29
2023-01-25T01:38:00.681Z,82.29
2023-01-25T01:39:00.670Z,82.31
2023-01-25T01:40:00.601Z,82.31
2023-01-25T01:41:00.602Z,82.31
2023-01-25T01:42:00.632Z,82.31
2023-01-25T01:43:02.094Z,82.31
2023-01-25T01:44:00.625Z,82.34
2023-01-25T01:45:00.612Z,82.34
2023-01-25T01:46:03.156Z,82.34
2023-01-25T01:47:00.940Z,82.34
2023-01-25T01:48:00.597Z,82.34
2023-01-25T01:49:03.539Z,82.51
2023-01-25T01:50:03.360Z,82.51
2023-01-25T01:51:02.381Z,82.51
2023-01-25T01:52:03.414Z,82.51
2023-01-25T01:53:00.708Z,82.51
2023-01-25T01:54:10.531Z,82.53
2023-01-25T01:55:04.131Z,82.53
2023-01-25T01:56:03.795Z,82.53
2023-01-25T01:57:06.221Z,82.53
2023-01-25T01:58:00.658Z,82.53
2023-01-25T01:59:02.223Z,82.64
2023-01-25T02:00:04.710Z,82.64
2023-01-25T02:01:00.701Z,82.64
2023-01-25T02:02:00.947Z,82.64
2023-01-25T02:03:00.624Z,82.64
2023-01-25T02:04:01.865Z,82.72
2023-01-25T02:05:02.592Z,82.72
2023-01-25T02:06:10.532Z,82.72
2023-01-25T02:07:05.578Z,82.72
2023-01-25T02:08:02.656Z,82.72
2023-01-25T02:09:00.736Z,82.85
2023-01-25T02:10:01.502Z,82.85
2023-01-25T02:11:00.711Z,82.85
2023-01-25T02:12:01.051Z,82.85
2023-01-25T02:13:00.603Z,82.85
2023-01-25T02:14:00.860Z,82.92
2023-01-25T02:15:00.648Z,82.92
2023-01-25T02:16:00.884Z,82.92
2023-01-25T02:17:01.970Z,82.92
2023-01-25T02:18:00.680Z,82.92
2023-01-25T02:19:00.774Z,83.06
2023-01-25T02:20:10.509Z,83.06
2023-01-25T02:21:00.719Z,83.06
2023-01-25T02:22:02.815Z,83.06
2023-01-25T02:23:00.592Z,83.06
2023-01-25T02:24:06.463Z,83.09
2023-01-25T02:25:04.991Z,83.09
2023-01-25T02:26:02.081Z,83.09
2023-01-25T02:27:00.860Z,83.09
2023-01-25T02:28:06.901Z,83.09
2023-01-25T02:29:03.018Z,83.15
2023-01-25T02:30:01.073Z,83.15
2023-01-25T02:31:00.949Z,83.15
2023-01-25T02:32:02.812Z,83.15
2023-01-25T02:33:00.658Z,83.15
2023-01-25T02:34:00.617Z,83.19
2023-01-25T02:35:00.630Z,83.19
2023-01-25T02:36:07.961Z,83.19
2023-01-25T02:37:00.888Z,83.19
2023-01-25T02:38:00.790Z,83.19
2023-01-25T02:39:02.854Z,83.26
2023-01-25T02:40:00.642Z,83.26
2023-01-25T02:41:10.524Z,83.26
2023-01-25T02:42:00.602Z,83.26
2023-01-25T02:43:00.591Z,83.26
2023-01-25T02:44:03.867Z,83.31
2023-01-25T02:45:00.961Z,83.31
2023-01-25T02:46:06.594Z,83.31
2023-01-25T02:47:00.634Z,83.31
2023-01-25T02:48:00.620Z,83.31
2023-01-25T02:49:01.190Z,83.44
2023-01-25T02:50:00.620Z,83.44
2023-01-25T02:51:00.690Z,83.44
2023-01-25T02:52:00.604Z,83.44
2023-01-25T02:53:00.609Z,83.44
2023-01-25T02:54:01.421Z,83.45
2023-01-25T02:55:00.636Z,83.45
2023-01-25T02:56:00.770Z,83.45
2023-01-25T02:57:00.650Z,83.45
2023-01-25T02:58:00.622Z,83.45
2023-01-25T02:59:00.640Z,83.53
2023-01-25T03:00:00.737Z,83.53
2023-01-25T03:01:00.616Z,83.53
2023-01-25T03:02:00.635Z,83.53
2023-01-25T03:03:00.701Z,83.53
2023-01-25T03:04:00.629Z,83.56
2023-01-25T03:05:00.653Z,83.56
2023-01-25T03:06:00.664Z,83.56
2023-01-25T03:07:00.596Z,83.56
2023-01-25T03:08:00.615Z,83.56
2023-01-25T03:09:01.200Z,83.56
2023-01-25T03:10:00.654Z,83.56
2023-01-25T03:11:02.223Z,83.56
2023-01-25T03:12:00.636Z,83.56
2023-01-25T03:13:00.653Z,83.56
2023-01-25T03:14:00.724Z,83.52
2023-01-25T03:15:00.659Z,83.52
2023-01-25T03:16:03.926Z,83.52
2023-01-25T03:17:00.608Z,83.52
2023-01-25T03:18:01.862Z,83.52
2023-01-25T03:19:00.757Z,83.74
2023-01-25T03:20:00.729Z,83.74
2023-01-25T03:21:10.521Z,83.74
2023-01-25T03:22:01.255Z,83.74
2023-01-25T03:23:00.620Z,83.74
2023-01-25T03:24:01.414Z,83.70
2023-01-25T03:25:00.622Z,83.70
2023-01-25T03:26:03.896Z,83.70
2023-01-25T03:27:00.627Z,83.70
2023-01-25T03:28:00.624Z,83.70
2023-01-25T03:29:00.611Z,83.70
2023-01-25T03:30:00.634Z,83.70
2023-01-25T03:31:00.838Z,83.70
2023-01-25T03:32:00.868Z,83.70
2023-01-25T03:33:00.615Z,83.70
2023-01-25T03:34:00.611Z,83.72
2023-01-25T03:35:00.648Z,83.72
2023-01-25T03:36:00.691Z,83.72
2023-01-25T03:37:00.691Z,83.72
2023-01-25T03:38:00.640Z,83.72
2023-01-25T03:39:00.618Z,83.72
2023-01-25T03:40:00.787Z,83.72
2023-01-25T03:41:00.730Z,83.72
2023-01-25T03:42:00.617Z,83.72
2023-01-25T03:43:00.606Z,83.72
2023-01-25T03:44:00.612Z,83.79
2023-01-25T03:45:00.608Z,83.79
2023-01-25T03:46:01.200Z,83.79
2023-01-25T03:47:00.724Z,83.79
2023-01-25T03:48:00.600Z,83.79
2023-01-25T03:49:00.606Z,83.97
2023-01-25T03:50:00.634Z,83.97
2023-01-25T03:51:00.635Z,83.97
2023-01-25T03:52:00.635Z,83.97
2023-01-25T03:53:00.615Z,83.97
2023-01-25T03:54:00.641Z,84.01
2023-01-25T03:55:00.615Z,84.01
2023-01-25T03:56:02.627Z,84.01
2023-01-25T03:57:00.619Z,84.01
2023-01-25T03:58:00.710Z,84.01
2023-01-25T03:59:00.659Z,83.95
2023-01-25T04:00:00.635Z,83.95
2023-01-25T04:01:01.663Z,83.95
2023-01-25T04:02:00.688Z,83.95
2023-01-25T04:03:00.629Z,83.95
2023-01-25T04:04:00.635Z,83.95
2023-01-25T04:05:00.627Z,83.95
2023-01-25T04:06:01.024Z,83.95
2023-01-25T04:07:00.636Z,83.95
2023-01-25T04:08:00.625Z,83.95
2023-01-25T04:09:00.599Z,84.06
2023-01-25T04:10:00.618Z,84.06
2023-01-25T04:11:01.886Z,84.06
2023-01-25T04:12:00.595Z,84.06
2023-01-25T04:13:00.679Z,84.06
2023-01-25T04:14:00.607Z,83.99
2023-01-25T04:15:00.600Z,83.99
2023-01-25T04:16:00.614Z,83.99
2023-01-25T04:17:00.635Z,83.99
2023-01-25T04:18:00.625Z,83.99
2023-01-25T04:19:00.797Z,84.06
2023-01-25T04:20:00.616Z,84.06
2023-01-25T04:21:00.601Z,84.06
2023-01-25T04:22:00.663Z,84.06
2023-01-25T04:23:00.613Z,84.06
2023-01-25T04:24:00.807Z,84.16
2023-01-25T04:25:00.615Z,84.16
2023-01-25T04:26:01.839Z,84.16
2023-01-25T04:27:00.605Z,84.16
2023-01-25T04:28:00.644Z,84.16
2023-01-25T04:29:00.610Z,84.43
2023-01-25T04:30:00.627Z,84.43
2023-01-25T04:31:01.077Z,84.43
2023-01-25T04:32:00.861Z,84.43
2023-01-25T04:33:02.582Z,84.43
2023-01-25T04:34:00.614Z,84.30
2023-01-25T04:35:00.657Z,84.30
2023-01-25T04:36:00.870Z,84.30
2023-01-25T04:37:00.698Z,84.30
2023-01-25T04:38:00.616Z,84.30
2023-01-25T04:39:00.629Z,84.27
2023-01-25T04:40:00.660Z,84.27
2023-01-25T04:41:00.636Z,84.27
2023-01-25T04:42:00.619Z,84.27
2023-01-25T04:43:01.134Z,84.27
2023-01-25T04:44:00.637Z,84.28
2023-01-25T04:45:00.644Z,84.28
2023-01-25T04:46:01.157Z,84.28
2023-01-25T04:47:00.653Z,84.28
2023-01-25T04:48:03.108Z,84.28
2023-01-25T04:49:00.639Z,84.32
2023-01-25T04:50:00.631Z,84.32
2023-01-25T04:51:00.623Z,84.32
2023-01-25T04:52:00.625Z,84.32
2023-01-25T04:53:00.632Z,84.32
2023-01-25T04:54:00.623Z,84.42
2023-01-25T04:55:00.635Z,84.42
2023-01-25T04:56:00.690Z,84.42
2023-01-25T04:57:00.595Z,84.42
2023-01-25T04:58:00.942Z,84.42
2023-01-25T04:59:00.599Z,84.57
2023-01-25T05:00:00.622Z,84.57
2023-01-25T05:01:01.364Z,84.57
2023-01-25T05:02:00.649Z,84.57
2023-01-25T05:03:01.430Z,84.57
2023-01-25T05:04:00.605Z,84.46
2023-01-25T05:05:00.676Z,84.46
2023-01-25T05:06:00.639Z,84.46
2023-01-25T05:07:00.673Z,84.46
2023-01-25T05:08:00.605Z,84.46
2023-01-25T05:09:00.671Z,84.37
2023-01-25T05:10:00.622Z,84.37
2023-01-25T05:11:00.621Z,84.37
2023-01-25T05:12:00.611Z,84.37
2023-01-25T05:13:00.601Z,84.37
2023-01-25T05:14:00.631Z,84.37
2023-01-25T05:15:00.855Z,84.37
2023-01-25T05:16:00.628Z,84.37
2023-01-25T05:17:00.747Z,84.37
2023-01-25T05:18:01.212Z,84.37
2023-01-25T05:19:00.631Z,84.46
2023-01-25T05:20:00.760Z,84.46
2023-01-25T05:21:00.639Z,84.46
2023-01-25T05:22:01.435Z,84.46
2023-01-25T05:23:00.636Z,84.46
2023-01-25T05:24:00.703Z,84.32
2023-01-25T05:25:00.827Z,84.32
2023-01-25T05:26:00.624Z,84.32
2023-01-25T05:27:01.269Z,84.32
2023-01-25T05:28:03.523Z,84.32
2023-01-25T05:29:00.643Z,84.19
2023-01-25T05:30:00.670Z,84.19
2023-01-25T05:31:03.244Z,84.19
2023-01-25T05:32:03.057Z,84.19
2023-01-25T05:33:00.842Z,84.19
2023-01-25T05:34:00.718Z,84.14
2023-01-25T05:35:05.586Z,84.14
2023-01-25T05:36:00.605Z,84.14
2023-01-25T05:37:01.143Z,84.14
2023-01-25T05:38:00.602Z,84.14
2023-01-25T05:39:00.636Z,84.28
2023-01-25T05:40:00.643Z,84.28
2023-01-25T05:41:00.602Z,84.28
2023-01-25T05:42:00.639Z,84.28
2023-01-25T05:43:00.637Z,84.28
2023-01-25T05:44:00.618Z,84.27
2023-01-25T05:45:00.632Z,84.27
2023-01-25T05:46:00.667Z,84.27
2023-01-25T05:47:00.658Z,84.27
2023-01-25T05:48:00.732Z,84.27
2023-01-25T05:49:00.608Z,84.24
2023-01-25T05:50:00.619Z,84.24
2023-01-25T05:51:00.641Z,84.24
2023-01-25T05:52:00.610Z,84.24
2023-01-25T05:53:00.603Z,84.24
2023-01-25T05:54:00.926Z,84.31
2023-01-25T05:55:00.628Z,84.31
2023-01-25T05:56:04.779Z,84.31
2023-01-25T05:57:00.626Z,84.31
2023-01-25T05:58:00.613Z,84.31
2023-01-25T05:59:00.725Z,84.20
2023-01-25T06:00:00.820Z,84.20
2023-01-25T06:01:01.942Z,84.20
2023-01-25T06:02:00.625Z,84.20
2023-01-25T06:03:00.877Z,84.20
2023-01-25T06:04:00.637Z,84.16
2023-01-25T06:05:00.602Z,84.16
2023-01-25T06:06:01.199Z,84.16
2023-01-25T06:07:00.625Z,84.16
2023-01-25T06:08:00.631Z,84.16
2023-01-25T06:09:00.750Z,84.24
2023-01-25T06:10:00.944Z,84.24
2023-01-25T06:11:05.657Z,84.24
2023-01-25T06:12:00.611Z,84.24
2023-01-25T06:13:00.616Z,84.24
2023-01-25T06:14:00.614Z,84.06
2023-01-25T06:15:00.646Z,84.06
2023-01-25T06:16:00.706Z,84.06
2023-01-25T06:17:00.641Z,84.06
2023-01-25T06:18:00.599Z,84.06
2023-01-25T06:19:00.627Z,84.31
2023-01-25T06:20:00.620Z,84.31
2023-01-25T06:21:01.365Z,84.31
2023-01-25T06:22:00.603Z,84.31
2023-01-25T06:23:00.660Z,84.31
2023-01-25T06:24:00.686Z,84.35
2023-01-25T06:25:00.618Z,84.35
2023-01-25T06:26:01.895Z,84.35
2023-01-25T06:27:00.619Z,84.35
2023-01-25T06:28:00.731Z,84.35
2023-01-25T06:29:00.691Z,84.27
2023-01-25T06:30:00.639Z,84.27
2023-01-25T06:31:08.958Z,84.27
2023-01-25T06:32:00.621Z,84.27
2023-01-25T06:33:01.088Z,84.27
2023-01-25T06:34:01.136Z,84.51
2023-01-25T06:35:00.771Z,84.51
2023-01-25T06:36:05.333Z,84.51
2023-01-25T06:37:00.617Z,84.51
2023-01-25T06:38:00.609Z,84.51
2023-01-25T06:39:00.617Z,84.20
2023-01-25T06:40:00.630Z,84.20
2023-01-25T06:41:01.908Z,84.20
2023-01-25T06:42:00.635Z,84.20
2023-01-25T06:43:08.448Z,84.20
2023-01-25T06:44:00.594Z,84.07
2023-01-25T06:45:00.647Z,84.07
2023-01-25T06:46:01.364Z,84.07
2023-01-25T06:47:00.621Z,84.07
2023-01-25T06:48:00.774Z,84.07
2023-01-25T06:49:00.646Z,84.25
2023-01-25T06:50:00.615Z,84.25
2023-01-25T06:51:01.962Z,84.25
2023-01-25T06:52:00.816Z,84.25
2023-01-25T06:53:00.604Z,84.25
2023-01-25T06:54:01.845Z,84.23
2023-01-25T06:55:01.081Z,84.23
2023-01-25T06:56:03.058Z,84.23
2023-01-25T06:57:00.630Z,84.23
2023-01-25T06:59:00.614Z,84.11
2023-01-25T07:00:00.721Z,84.11
2023-01-25T07:01:02.481Z,84.11
2023-01-25T07:02:00.670Z,84.11
2023-01-25T07:03:00.667Z,84.11
2023-01-25T07:04:00.666Z,84.18
2023-01-25T07:05:00.600Z,84.18
2023-01-25T07:06:02.931Z,84.18
2023-01-25T07:07:00.637Z,84.18
2023-01-25T07:08:00.619Z,84.18
2023-01-25T07:09:01.958Z,83.94
2023-01-25T07:10:00.606Z,83.94
2023-01-25T07:11:01.598Z,83.94
2023-01-25T07:12:00.683Z,83.94
2023-01-25T07:13:00.621Z,83.94
2023-01-25T07:14:00.982Z,83.92
2023-01-25T07:15:00.632Z,83.92
2023-01-25T07:16:01.576Z,83.92
2023-01-25T07:17:02.874Z,83.92
2023-01-25T07:18:14.839Z,83.92
2023-01-25T07:19:00.721Z,84.03
2023-01-25T07:20:00.622Z,84.03
2023-01-25T07:21:03.460Z,84.03
2023-01-25T07:22:00.831Z,84.03
2023-01-25T07:23:02.247Z,84.03
2023-01-25T07:24:01.243Z,84.11
2023-01-25T07:25:00.599Z,84.11
2023-01-25T07:26:00.784Z,84.11
2023-01-25T07:27:00.619Z,84.11
2023-01-25T07:28:00.608Z,84.11
2023-01-25T07:29:00.628Z,84.08
2023-01-25T07:30:00.637Z,84.08
2023-01-25T07:31:04.397Z,84.08
2023-01-25T07:32:01.270Z,84.08
2023-01-25T07:33:00.614Z,84.08
2023-01-25T07:34:00.650Z,84.17
2023-01-25T07:35:00.620Z,84.17
2023-01-25T07:36:02.670Z,84.17
2023-01-25T07:37:00.616Z,84.17
2023-01-25T07:38:00.867Z,84.17
2023-01-25T07:39:00.659Z,84.08
2023-01-25T07:40:00.641Z,84.08
2023-01-25T07:41:01.098Z,84.08
2023-01-25T07:42:00.735Z,84.08
2023-01-25T07:43:00.723Z,84.08
2023-01-25T07:44:00.688Z,83.97
2023-01-25T07:45:00.638Z,83.97
2023-01-25T07:46:05.072Z,83.97
2023-01-25T07:47:00.617Z,83.97
2023-01-25T07:48:06.900Z,83.97
2023-01-25T07:49:00.599Z,84.04
2023-01-25T07:50:00.645Z,84.04
2023-01-25T07:51:01.371Z,84.04
2023-01-25T07:52:00.606Z,84.04
2023-01-25T07:53:00.600Z,84.04
2023-01-25T07:54:02.495Z,84.04
2023-01-25T07:55:00.800Z,84.04
2023-01-25T07:56:00.612Z,84.04
2023-01-25T07:57:00.602Z,84.04
2023-01-25T07:58:00.609Z,84.04
2023-01-25T07:59:00.761Z,84.01
2023-01-25T08:00:00.641Z,84.01
2023-01-25T08:01:09.168Z,84.01
2023-01-25T08:02:00.645Z,84.01
2023-01-25T08:03:00.609Z,84.01
2023-01-25T08:04:01.172Z,83.99
2023-01-25T08:05:00.666Z,83.99
2023-01-25T08:06:00.628Z,83.99
2023-01-25T08:07:00.631Z,83.99
2023-01-25T08:08:00.617Z,83.99
2023-01-25T08:09:02.458Z,83.90
2023-01-25T08:10:00.609Z,83.90
2023-01-25T08:11:05.834Z,83.90
2023-01-25T08:12:00.620Z,83.90
2023-01-25T08:13:00.611Z,83.90
2023-01-25T08:14:00.912Z,83.84
2023-01-25T08:15:00.683Z,83.84
2023-01-25T08:16:00.601Z,83.84
2023-01-25T08:17:00.610Z,83.84
2023-01-25T08:18:00.986Z,83.84
2023-01-25T08:19:01.275Z,84.11
2023-01-25T08:20:00.714Z,84.11
2023-01-25T08:21:00.605Z,84.11
2023-01-25T08:22:00.660Z,84.11
2023-01-25T08:23:00.608Z,84.11
2023-01-25T08:24:02.569Z,84.06
2023-01-25T08:25:00.885Z,84.06
2023-01-25T08:26:01.581Z,84.06
2023-01-25T08:27:00.683Z,84.06
2023-01-25T08:28:00.609Z,84.06
2023-01-25T08:29:00.818Z,83.91
2023-01-25T08:30:01.172Z,83.91
2023-01-25T08:31:09.413Z,83.91
2023-01-25T08:32:00.623Z,83.91
2023-01-25T08:33:00.617Z,83.91
2023-01-25T08:34:00.936Z,83.92
2023-01-25T08:35:00.624Z,83.92
2023-01-25T08:36:00.741Z,83.92
2023-01-25T08:37:00.658Z,83.92
2023-01-25T08:38:00.601Z,83.92
2023-01-25T08:39:02.352Z,83.84
2023-01-25T08:40:00.617Z,83.84
2023-01-25T08:41:05.289Z,83.84
2023-01-25T08:42:00.615Z,83.84
2023-01-25T08:43:00.619Z,83.84
2023-01-25T08:44:00.785Z,84.01
2023-01-25T08:45:00.606Z,84.01
2023-01-25T08:46:01.498Z,84.01
2023-01-25T08:47:00.628Z,84.01
2023-01-25T08:48:00.613Z,84.01
2023-01-25T08:49:01.166Z,84.04
2023-01-25T08:50:00.681Z,84.04
2023-01-25T08:51:00.924Z,84.04
2023-01-25T08:52:00.655Z,84.04
2023-01-25T08:53:00.620Z,84.04
2023-01-25T08:54:01.578Z,84.01
2023-01-25T08:55:00.609Z,84.01
2023-01-25T08:56:02.657Z,84.01
2023-01-25T08:57:00.671Z,84.01
2023-01-25T08:58:00.602Z,84.01
2023-01-25T08:59:00.624Z,83.92
2023-01-25T09:00:00.710Z,83.92
2023-01-25T09:01:02.064Z,83.92
2023-01-25T09:02:00.610Z,83.92
2023-01-25T09:03:00.612Z,83.92
2023-01-25T09:04:00.845Z,83.88
2023-01-25T09:05:00.737Z,83.88
2023-01-25T09:06:00.618Z,83.88
2023-01-25T09:07:00.621Z,83.88
2023-01-25T09:08:01.404Z,83.88
2023-01-25T09:09:00.619Z,83.73
2023-01-25T09:10:00.674Z,83.73
2023-01-25T09:11:01.546Z,83.73
2023-01-25T09:12:00.699Z,83.73
2023-01-25T09:13:00.650Z,83.73
2023-01-25T09:14:00.633Z,83.63
2023-01-25T09:15:01.428Z,83.63
2023-01-25T09:16:02.727Z,83.63
2023-01-25T09:17:00.653Z,83.63
2023-01-25T09:18:00.604Z,83.63
2023-01-25T09:19:01.860Z,83.70
2023-01-25T09:20:00.646Z,83.70
2023-01-25T09:21:06.503Z,83.70
2023-01-25T09:22:00.603Z,83.70
2023-01-25T09:23:00.621Z,83.70
2023-01-25T09:24:08.062Z,83.88
2023-01-25T09:25:00.685Z,83.88
2023-01-25T09:26:00.715Z,83.88
2023-01-25T09:27:00.633Z,83.88
2023-01-25T09:28:00.793Z,83.88
2023-01-25T09:29:00.655Z,83.81
2023-01-25T09:30:02.304Z,83.81
2023-01-25T09:31:19.750Z,83.81
2023-01-25T09:32:00.863Z,83.81
2023-01-25T09:33:00.756Z,83.81
2023-01-25T09:34:00.810Z,83.84
2023-01-25T09:35:00.682Z,83.84
2023-01-25T09:36:01.168Z,83.84
2023-01-25T09:37:00.619Z,83.84
2023-01-25T09:38:00.621Z,83.84
2023-01-25T09:39:00.661Z,83.85
2023-01-25T09:40:00.622Z,83.85
2023-01-25T09:41:03.878Z,83.85
2023-01-25T09:42:14.569Z,83.85
2023-01-25T09:43:10.522Z,83.85
2023-01-25T09:44:10.540Z,83.82
2023-01-25T09:45:01.618Z,83.82
2023-01-25T09:46:07.824Z,83.82
2023-01-25T09:47:04.921Z,83.82
2023-01-25T09:48:10.525Z,83.82
2023-01-25T09:49:07.660Z,83.92
2023-01-25T09:50:01.634Z,83.92
2023-01-25T09:51:01.637Z,83.92
2023-01-25T09:52:08.173Z,83.92
2023-01-25T09:53:09.904Z,83.92
2023-01-25T09:54:00.970Z,84.01
2023-01-25T09:55:01.366Z,84.01
2023-01-25T09:56:08.855Z,84.01
2023-01-25T09:57:00.869Z,84.01
2023-01-25T09:58:01.465Z,84.01
2023-01-25T09:59:06.346Z,83.87
2023-01-25T10:00:05.654Z,83.87
2023-01-25T10:01:14.469Z,83.87
2023-01-25T10:02:04.421Z,83.87
2023-01-25T10:03:04.562Z,83.87
2023-01-25T10:04:03.280Z,83.77
2023-01-25T10:05:05.300Z,83.77
2023-01-25T10:06:01.567Z,83.77
2023-01-25T10:07:09.666Z,83.77
2023-01-25T10:08:10.534Z,83.77
2023-01-25T10:09:10.531Z,83.81
2023-01-25T10:10:03.823Z,83.81
2023-01-25T10:11:10.515Z,83.81
2023-01-25T10:12:08.383Z,83.81
2023-01-25T10:13:00.959Z,83.81
2023-01-25T10:14:00.651Z,83.78
2023-01-25T10:15:00.782Z,83.78
2023-01-25T10:16:03.092Z,83.78
2023-01-25T10:17:04.947Z,83.78
2023-01-25T10:18:10.520Z,83.78
2023-01-25T10:19:10.521Z,83.92
2023-01-25T10:20:08.384Z,83.92
2023-01-25T10:21:02.369Z,83.92
2023-01-25T10:22:05.201Z,83.92
2023-01-25T10:23:07.983Z,83.92
2023-01-25T10:24:10.616Z,83.98
2023-01-25T10:25:03.954Z,83.98
2023-01-25T10:26:05.478Z,83.98
2023-01-25T10:27:10.550Z,83.98
2023-01-25T10:28:07.988Z,83.98
2023-01-25T10:29:06.515Z,83.92
2023-01-25T10:30:08.109Z,83.92
2023-01-25T10:31:05.558Z,83.92
2023-01-25T10:32:10.530Z,83.92
2023-01-25T10:33:06.325Z,83.92
2023-01-25T10:34:01.172Z,83.92
2023-01-25T10:35:11.695Z,83.92
2023-01-25T10:36:01.739Z,83.92
2023-01-25T10:37:03.117Z,83.92
2023-01-25T10:38:10.558Z,83.92
2023-01-25T10:39:00.609Z,83.82
2023-01-25T10:40:03.554Z,83.82
2023-01-25T10:41:05.846Z,83.82
2023-01-25T10:42:05.203Z,83.82
2023-01-25T10:43:04.848Z,83.82
2023-01-25T10:44:00.601Z,83.80
2023-01-25T10:45:00.676Z,83.80
2023-01-25T10:46:01.273Z,83.80
2023-01-25T10:47:04.316Z,83.80
2023-01-25T10:48:02.362Z,83.80
2023-01-25T10:49:01.583Z,83.93
2023-01-25T10:50:00.634Z,83.93
2023-01-25T10:51:01.180Z,83.93
2023-01-25T10:52:10.529Z,83.93
2023-01-25T10:53:01.162Z,83.93
2023-01-25T10:54:01.650Z,83.88
2023-01-25T10:55:06.666Z,83.88
2023-01-25T10:56:08.109Z,83.88
2023-01-25T10:57:00.643Z,83.88
2023-01-25T10:58:00.696Z,83.88
2023-01-25T10:59:08.070Z,83.92
2023-01-25T11:00:04.456Z,83.92
2023-01-25T11:01:00.914Z,83.92
2023-01-25T11:02:10.533Z,83.92
2023-01-25T11:03:00.688Z,83.92
2023-01-25T11:04:01.042Z,83.91
2023-01-25T11:05:10.969Z,83.91
2023-01-25T11:06:00.639Z,83.91
2023-01-25T11:07:02.349Z,83.91
2023-01-25T11:08:10.524Z,83.91
2023-01-25T11:09:10.524Z,83.89
2023-01-25T11:10:00.632Z,83.89
2023-01-25T11:11:10.523Z,83.89
2023-01-25T11:12:02.038Z,83.89
2023-01-25T11:13:10.515Z,83.89
2023-01-25T11:14:00.922Z,84.18
2023-01-25T11:15:10.539Z,84.18
2023-01-25T11:16:00.660Z,84.18
2023-01-25T11:17:02.221Z,84.18
2023-01-25T11:18:10.521Z,84.18
2023-01-25T11:19:01.029Z,84.02
2023-01-25T11:20:05.500Z,84.02
2023-01-25T11:21:10.533Z,84.02
2023-01-25T11:22:01.944Z,84.02
2023-01-25T11:23:00.627Z,84.02
2023-01-25T11:24:07.981Z,84.09
2023-01-25T11:25:10.508Z,84.09
2023-01-25T11:26:10.527Z,84.09
2023-01-25T11:27:10.532Z,84.09
2023-01-25T11:28:09.251Z,84.09
2023-01-25T11:29:10.519Z,84.08
2023-01-25T11:30:03.859Z,84.08
2023-01-25T11:31:00.821Z,84.08
2023-01-25T11:32:00.685Z,84.08
2023-01-25T11:33:00.675Z,84.08
2023-01-25T11:34:00.923Z,83.95
2023-01-25T11:35:00.725Z,83.95
2023-01-25T11:36:01.607Z,83.95
2023-01-25T11:37:10.530Z,83.95
2023-01-25T11:38:07.939Z,83.95
2023-01-25T11:39:00.605Z,83.93
2023-01-25T11:40:10.908Z,83.93
2023-01-25T11:41:05.408Z,83.93
2023-01-25T11:42:05.704Z,83.93
2023-01-25T11:43:05.888Z,83.93
2023-01-25T11:44:10.540Z,83.86
2023-01-25T11:45:08.279Z,83.86
2023-01-25T11:46:10.573Z,83.86
2023-01-25T11:47:09.581Z,83.86
2023-01-25T11:48:08.353Z,83.86
2023-01-25T11:49:10.517Z,84.01
2023-01-25T11:50:10.876Z,84.01
2023-01-25T11:51:05.316Z,84.01
2023-01-25T11:52:03.864Z,84.01
2023-01-25T11:53:03.875Z,84.01
2023-01-25T11:54:00.609Z,84.01
2023-01-25T11:55:00.622Z,84.01
2023-01-25T11:56:10.534Z,84.01
2023-01-25T11:57:00.653Z,84.01
2023-01-25T11:58:10.382Z,84.01
2023-01-25T11:59:08.233Z,84.02
2023-01-25T12:00:07.361Z,84.02
2023-01-25T12:01:10.529Z,84.02
2023-01-25T12:02:00.612Z,84.02
2023-01-25T12:03:10.551Z,84.02
2023-01-25T12:04:10.603Z,84.02
2023-01-25T12:05:21.193Z,84.02
2023-01-25T12:06:10.520Z,84.02
2023-01-25T12:07:00.609Z,84.02
2023-01-25T12:08:00.646Z,84.02
2023-01-25T12:09:01.644Z,84.09
2023-01-25T12:10:10.819Z,84.09
2023-01-25T12:11:03.853Z,84.09
2023-01-25T12:12:10.533Z,84.09
2023-01-25T12:13:01.623Z,84.09
2023-01-25T12:14:09.841Z,83.98
2023-01-25T12:15:10.526Z,83.98
2023-01-25T12:16:00.657Z,83.98
2023-01-25T12:17:05.070Z,83.98
2023-01-25T12:18:01.761Z,83.98
2023-01-25T12:19:10.545Z,84.00
2023-01-25T12:20:03.866Z,84.00
2023-01-25T12:21:03.399Z,84.00
2023-01-25T12:22:08.071Z,84.00
2023-01-25T12:23:00.608Z,84.00
2023-01-25T12:24:00.620Z,84.00
2023-01-25T12:25:01.622Z,84.00
2023-01-25T12:26:10.534Z,84.00
2023-01-25T12:27:10.519Z,84.00
2023-01-25T12:28:10.528Z,84.00
2023-01-25T12:29:00.608Z,84.16
2023-01-25T12:30:10.785Z,84.16
2023-01-25T12:31:04.712Z,84.16
2023-01-25T12:32:00.613Z,84.16
2023-01-25T12:33:14.299Z,84.16
2023-01-25T12:34:03.836Z,83.93
2023-01-25T12:35:10.513Z,83.93
2023-01-25T12:36:00.620Z,83.93
2023-01-25T12:37:03.757Z,83.93
2023-01-25T12:38:02.522Z,83.93
2023-01-25T12:39:02.672Z,84.43
2023-01-25T12:40:04.011Z,84.43
2023-01-25T12:41:04.197Z,84.43
2023-01-25T12:42:04.674Z,84.43
2023-01-25T12:43:00.681Z,84.43
2023-01-25T12:44:07.065Z,84.31
2023-01-25T12:45:03.976Z,84.31
2023-01-25T12:46:03.921Z,84.31
2023-01-25T12:47:01.711Z,84.31
2023-01-25T12:48:03.241Z,84.31
2023-01-25T12:49:05.239Z,84.30
2023-01-25T12:50:10.890Z,84.30
2023-01-25T12:51:00.640Z,84.30
2023-01-25T12:52:04.423Z,84.30
2023-01-25T12:53:01.625Z,84.30